createdAt,value
2018-08-06T00:00:29.403Z,3.30
2018-08-06T00:02:57.772Z,2.90
2018-08-06T00:05:26.200Z,3.85
2018-08-06T00:07:54.563Z,3.92
2018-08-06T00:10:24.384Z,4.10
2018-08-06T00:12:52.827Z,3.80
2018-08-06T00:15:21.196Z,4.60
2018-08-06T00:17:49.556Z,3.80
2018-08-06T00:20:17.963Z,4.25
2018-08-06T00:22:46.017Z,4.00
2018-08-06T00:25:15.556Z,3.30
2018-08-06T00:27:44.217Z,4.20
2018-08-06T00:30:13.857Z,3.85
2018-08-06T00:32:43.028Z,3.45
2018-08-06T00:35:11.580Z,3.37
2018-08-06T00:37:40.084Z,3.08
2018-08-06T00:40:09.262Z,3.08
2018-08-06T00:42:37.616Z,3.52
2018-08-06T00:45:07.692Z,3.42
2018-08-06T00:47:36.040Z,3.80
2018-08-06T00:50:04.855Z,4.70
2018-08-06T00:52:33.216Z,3.55
2018-08-06T00:55:01.580Z,3.33
2018-08-06T00:57:29.899Z,3.17
2018-08-06T00:59:58.234Z,4.00
2018-08-06T01:02:26.556Z,2.80
2018-08-06T01:04:54.922Z,3.22
2018-08-06T01:07:23.302Z,3.52
2018-08-06T01:09:51.413Z,3.40
2018-08-06T01:12:19.747Z,2.87
2018-08-06T01:14:48.136Z,2.80
2018-08-06T01:17:16.477Z,3.58
2018-08-06T01:19:44.859Z,3.37
2018-08-06T01:22:13.177Z,3.33
2018-08-06T01:24:41.251Z,3.15
2018-08-06T01:27:09.567Z,3.80
2018-08-06T01:29:37.944Z,3.08
2018-08-06T01:32:06.286Z,3.47
2018-08-06T01:34:34.644Z,3.20
2018-08-06T01:37:03.000Z,3.75
2018-08-06T01:39:31.357Z,3.72
2018-08-06T01:41:59.668Z,3.27
2018-08-06T01:44:28.079Z,3.45
2018-08-06T01:46:56.396Z,4.00
2018-08-06T01:49:24.888Z,3.72
2018-08-06T01:51:53.255Z,3.10
2018-08-06T01:54:21.632Z,3.65
2018-08-06T01:56:50.904Z,2.70
2018-08-06T01:59:19.306Z,3.33
2018-08-06T02:01:47.691Z,3.35
2018-08-06T02:04:16.041Z,3.10
2018-08-06T02:06:44.449Z,3.10
2018-08-06T02:09:12.803Z,3.42
2018-08-06T02:11:41.212Z,3.60
2018-08-06T02:14:09.611Z,3.05
2018-08-06T02:16:38.020Z,2.98
2018-08-06T02:19:06.065Z,3.40
2018-08-06T02:21:34.499Z,3.27
2018-08-06T02:24:02.900Z,3.17
2018-08-06T02:26:31.280Z,3.50
2018-08-06T02:28:59.689Z,3.37
2018-08-06T02:31:28.095Z,3.37
2018-08-06T02:33:56.504Z,3.60
2018-08-06T02:36:24.863Z,3.22
2018-08-06T02:38:53.277Z,3.02
2018-08-06T02:41:21.644Z,3.90
2018-08-06T02:43:50.461Z,3.47
2018-08-06T02:46:18.879Z,3.60
2018-08-06T02:48:47.070Z,5.05
2018-08-06T02:51:15.396Z,4.28
2018-08-06T02:53:43.783Z,3.05
2018-08-06T02:56:12.144Z,3.70
2018-08-06T02:58:40.524Z,3.60
2018-08-06T03:01:08.874Z,3.25
2018-08-06T03:03:37.352Z,3.65
2018-08-06T03:06:06.432Z,3.25
2018-08-06T03:08:34.824Z,3.37
2018-08-06T03:11:03.250Z,3.22
2018-08-06T03:13:31.612Z,3.45
2018-08-06T03:16:00.012Z,3.75
2018-08-06T03:18:28.351Z,3.60
2018-08-06T03:20:56.851Z,2.90
2018-08-06T03:23:25.228Z,3.30
2018-08-06T03:25:53.641Z,3.72
2018-08-06T03:28:21.732Z,3.42
2018-08-06T03:30:50.214Z,3.37
2018-08-06T03:33:18.601Z,4.10
2018-08-06T03:35:47.046Z,3.65
2018-08-06T03:38:15.382Z,3.60
2018-08-06T03:40:43.847Z,3.55
2018-08-06T03:43:12.128Z,3.98
2018-08-06T03:45:40.558Z,3.55
2018-08-06T03:48:08.936Z,3.77
2018-08-06T03:50:37.424Z,4.28
2018-08-06T03:53:05.492Z,3.70
2018-08-06T03:55:33.930Z,3.75
2018-08-06T03:58:02.347Z,3.80
2018-08-06T04:00:30.687Z,4.00
2018-08-06T04:02:59.163Z,4.25
2018-08-06T04:05:27.525Z,4.25
2018-08-06T04:07:55.947Z,4.15
2018-08-06T04:10:24.323Z,3.83
2018-08-06T04:12:52.734Z,4.00
2018-08-06T04:15:21.143Z,4.00
2018-08-06T04:17:49.540Z,4.30
2018-08-06T04:20:18.028Z,3.92
2018-08-06T04:22:46.491Z,3.85
2018-08-06T04:25:14.948Z,3.75
2018-08-06T04:27:43.045Z,4.80
2018-08-06T04:30:13.882Z,5.47
2018-08-06T04:32:42.822Z,4.47
2018-08-06T04:35:11.244Z,3.80
2018-08-06T04:37:39.636Z,5.05
2018-08-06T04:40:09.395Z,3.52
2018-08-06T04:42:37.928Z,4.05
2018-08-06T04:45:06.660Z,3.37
2018-08-06T04:47:35.080Z,4.20
2018-08-06T04:50:04.388Z,4.00
2018-08-06T04:52:33.782Z,4.28
2018-08-06T04:55:02.168Z,3.80
2018-08-06T04:57:30.568Z,4.08
2018-08-06T04:59:59.984Z,3.30
2018-08-06T05:02:28.448Z,4.30
2018-08-06T05:04:56.868Z,4.20
2018-08-06T05:07:25.240Z,4.92
2018-08-06T05:09:53.679Z,4.00
2018-08-06T05:12:22.050Z,4.30
2018-08-06T05:14:50.444Z,4.10
2018-08-06T05:17:18.864Z,3.95
2018-08-06T05:19:47.208Z,4.53
2018-08-06T05:22:15.708Z,4.33
2018-08-06T05:24:44.143Z,4.05
2018-08-06T05:27:12.575Z,4.05
2018-08-06T05:29:41.028Z,4.37
2018-08-06T05:32:09.386Z,3.77
2018-08-06T05:34:37.795Z,4.17
2018-08-06T05:37:06.216Z,4.20
2018-08-06T05:39:34.629Z,4.22
2018-08-06T05:42:02.988Z,3.65
2018-08-06T05:44:31.380Z,4.12
2018-08-06T05:46:59.464Z,4.37
2018-08-06T05:49:27.896Z,4.87
2018-08-06T05:51:56.349Z,4.92
2018-08-06T05:54:26.292Z,5.60
2018-08-06T05:56:54.727Z,5.25
2018-08-06T05:59:23.111Z,5.37
2018-08-06T06:01:51.535Z,5.05
2018-08-06T06:04:19.928Z,5.17
2018-08-06T06:06:48.355Z,5.12
2018-08-06T06:09:16.796Z,5.22
2018-08-06T06:11:45.180Z,5.62
2018-08-06T06:14:13.611Z,5.83
2018-08-06T06:16:41.984Z,5.15
2018-08-06T06:19:10.387Z,5.35
2018-08-06T06:21:38.808Z,4.95
2018-08-06T06:24:07.247Z,6.15
2018-08-06T06:26:35.636Z,5.37
2018-08-06T06:29:04.112Z,5.42
2018-08-06T06:31:32.501Z,5.15
2018-08-06T06:34:00.896Z,5.70
2018-08-06T06:36:29.031Z,6.58
2018-08-06T06:38:57.413Z,6.17
2018-08-06T06:41:25.848Z,5.05
2018-08-06T06:43:54.279Z,5.35
2018-08-06T06:46:22.675Z,5.12
2018-08-06T06:48:52.156Z,5.75
2018-08-06T06:51:20.624Z,7.08
2018-08-06T06:53:49.075Z,5.70
2018-08-06T06:56:17.515Z,6.40
2018-08-06T06:58:45.915Z,5.78
2018-08-06T07:01:14.332Z,6.72
2018-08-06T07:03:42.703Z,6.25
2018-08-06T07:06:11.371Z,5.73
2018-08-06T07:08:40.553Z,6.60
2018-08-06T07:11:08.979Z,6.47
2018-08-06T07:13:37.422Z,5.30
2018-08-06T07:16:05.997Z,6.25
2018-08-06T07:18:34.073Z,5.83
2018-08-06T07:21:02.189Z,5.85
2018-08-06T07:23:30.552Z,5.20
2018-08-06T07:25:58.979Z,5.30
2018-08-06T07:28:27.381Z,6.37
2018-08-06T07:30:55.788Z,5.50
2018-08-06T07:33:24.133Z,6.23
2018-08-06T07:35:52.515Z,6.00
2018-08-06T07:38:20.894Z,5.30
2018-08-06T07:40:49.268Z,6.67
2018-08-06T07:43:17.670Z,6.10
2018-08-06T07:45:45.980Z,5.97
2018-08-06T07:48:14.400Z,5.83
2018-08-06T07:50:42.775Z,5.73
2018-08-06T07:53:11.152Z,6.20
2018-08-06T07:55:39.532Z,6.70
2018-08-06T07:58:07.959Z,6.27
2018-08-06T08:00:36.405Z,6.20
2018-08-06T08:03:04.853Z,6.60
2018-08-06T08:05:33.280Z,5.87
2018-08-06T08:08:01.932Z,6.00
2018-08-06T08:10:30.323Z,6.93
2018-08-06T08:12:58.685Z,6.33
2018-08-06T08:15:27.268Z,6.30
2018-08-06T08:17:56.975Z,6.00
2018-08-06T08:20:25.684Z,6.57
2018-08-06T08:22:54.151Z,6.00
2018-08-06T08:25:23.291Z,6.07
2018-08-06T08:27:51.789Z,6.63
2018-08-06T08:30:20.437Z,6.77
2018-08-06T08:32:48.898Z,7.43
2018-08-06T08:35:17.360Z,6.00
2018-08-06T08:37:45.851Z,6.23
2018-08-06T08:40:18.180Z,7.03
2018-08-06T08:42:46.600Z,6.40
2018-08-06T08:45:16.266Z,6.30
2018-08-06T08:47:45.212Z,7.70
2018-08-06T08:50:15.625Z,6.93
2018-08-06T08:52:44.235Z,7.80
2018-08-06T08:55:15.000Z,6.60
2018-08-06T08:57:43.175Z,6.20
2018-08-06T09:00:15.669Z,7.87
2018-08-06T09:02:45.512Z,8.20
2018-08-06T09:05:14.473Z,6.73
2018-08-06T09:07:42.886Z,7.50
2018-08-06T09:10:12.385Z,7.40
2018-08-06T09:12:41.233Z,7.60
2018-08-06T09:15:10.626Z,7.47
2018-08-06T09:17:39.031Z,7.37
2018-08-06T09:20:07.486Z,7.23
2018-08-06T09:22:36.123Z,7.80
2018-08-06T09:25:05.772Z,7.60
2018-08-06T09:27:34.161Z,7.73
2018-08-06T09:30:02.564Z,7.37
2018-08-06T09:32:31.019Z,7.43
2018-08-06T09:34:59.419Z,7.50
2018-08-06T09:37:27.791Z,7.63
2018-08-06T09:39:55.847Z,7.07
2018-08-06T09:42:24.179Z,7.30
2018-08-06T09:44:52.544Z,7.00
2018-08-06T09:47:21.012Z,7.70
2018-08-06T09:49:49.429Z,7.60
2018-08-06T09:52:18.098Z,7.03
2018-08-06T09:54:46.516Z,7.20
2018-08-06T09:57:14.939Z,7.40
2018-08-06T09:59:43.295Z,7.43
2018-08-06T10:02:11.799Z,8.13
2018-08-06T10:04:40.135Z,8.70
2018-08-06T10:07:08.605Z,9.30
2018-08-06T10:09:36.948Z,7.90
2018-08-06T10:12:05.486Z,7.73
2018-08-06T10:14:33.875Z,7.20
2018-08-06T10:17:02.312Z,9.10
2018-08-06T10:19:30.715Z,7.77
2018-08-06T10:21:59.208Z,8.37
2018-08-06T10:24:27.754Z,7.73
2018-08-06T10:26:56.179Z,8.17
2018-08-06T10:29:24.593Z,6.87
2018-08-06T10:31:53.132Z,8.00
2018-08-06T10:34:21.563Z,8.50
2018-08-06T10:36:49.973Z,7.87
2018-08-06T10:39:18.388Z,7.70
2018-08-06T10:41:46.499Z,7.23
2018-08-06T10:44:14.923Z,7.70
2018-08-06T10:46:43.323Z,8.07
2018-08-06T10:49:11.703Z,7.23
2018-08-06T10:51:39.751Z,6.87
2018-08-06T10:54:08.256Z,7.80
2018-08-06T10:56:36.628Z,6.57
2018-08-06T10:59:05.259Z,7.07
2018-08-06T11:01:33.735Z,8.00
2018-08-06T11:04:02.155Z,7.67
2018-08-06T11:06:30.567Z,7.20
2018-08-06T11:08:58.966Z,6.70
2018-08-06T11:11:33.821Z,7.07
2018-08-06T11:14:02.227Z,7.00
2018-08-06T11:16:30.520Z,6.93
2018-08-06T11:18:58.871Z,7.10
2018-08-06T11:21:27.196Z,7.23
2018-08-06T11:23:55.301Z,7.20
2018-08-06T11:26:23.753Z,7.33
2018-08-06T11:28:51.819Z,7.40
2018-08-06T11:31:20.196Z,6.63
2018-08-06T11:33:48.258Z,6.93
2018-08-06T11:36:16.659Z,7.23
2018-08-06T11:38:44.968Z,6.97
2018-08-06T11:41:13.352Z,7.27
2018-08-06T11:43:41.704Z,6.90
2018-08-06T11:46:10.084Z,7.33
2018-08-06T11:48:38.516Z,6.53
2018-08-06T11:51:06.893Z,6.97
2018-08-06T11:53:35.255Z,7.30
2018-08-06T11:56:03.631Z,6.50
2018-08-06T11:58:32.004Z,6.87
2018-08-06T12:01:00.445Z,7.87
2018-08-06T12:03:28.487Z,7.43
2018-08-06T12:05:56.888Z,7.30
2018-08-06T12:08:25.352Z,7.10
2018-08-06T12:10:53.754Z,7.37
2018-08-06T12:13:22.144Z,7.80
2018-08-06T12:15:56.607Z,7.43
2018-08-06T12:18:25.028Z,7.53
2018-08-06T12:20:53.305Z,6.83
2018-08-06T12:23:21.680Z,7.57
2018-08-06T12:25:50.585Z,7.83
2018-08-06T12:28:18.928Z,7.30
2018-08-06T12:30:47.360Z,7.57
2018-08-06T12:33:15.728Z,7.10
2018-08-06T12:35:44.091Z,7.43
2018-08-06T12:38:12.512Z,6.83
2018-08-06T12:40:40.876Z,8.53
2018-08-06T12:43:09.268Z,7.23
2018-08-06T12:45:37.676Z,7.80
2018-08-06T12:48:06.093Z,7.80
2018-08-06T12:50:34.194Z,6.97
2018-08-06T12:53:02.533Z,7.97
2018-08-06T12:55:30.887Z,7.83
2018-08-06T12:57:59.264Z,7.87
2018-08-06T13:00:28.039Z,7.60
2018-08-06T13:02:56.536Z,7.33
2018-08-06T13:05:25.375Z,7.60
2018-08-06T13:07:53.754Z,7.77
2018-08-06T13:10:21.813Z,7.83
2018-08-06T13:12:49.905Z,7.20
2018-08-06T13:15:18.471Z,8.27
2018-08-06T13:17:46.880Z,7.70
2018-08-06T13:20:25.280Z,6.90
2018-08-06T13:22:53.599Z,8.50
2018-08-06T13:25:21.991Z,7.83
2018-08-06T13:27:50.309Z,7.47
2018-08-06T13:30:18.716Z,7.90
2018-08-06T13:32:47.075Z,8.30
2018-08-06T13:35:15.991Z,8.40
2018-08-06T13:37:44.344Z,8.07
2018-08-06T13:40:12.772Z,7.40
2018-08-06T13:42:41.137Z,8.00
2018-08-06T13:45:11.376Z,7.70
2018-08-06T13:47:39.767Z,7.03
2018-08-06T13:50:08.856Z,8.70
2018-08-06T13:52:37.620Z,7.60
2018-08-06T13:55:07.080Z,7.97
2018-08-06T13:57:35.120Z,8.50
2018-08-06T14:00:04.761Z,7.10
2018-08-06T14:02:33.206Z,7.63
2018-08-06T14:05:01.615Z,8.30
2018-08-06T14:07:29.712Z,7.67
2018-08-06T14:09:58.185Z,7.80
2018-08-06T14:12:26.560Z,8.10
2018-08-06T14:14:54.654Z,7.30
2018-08-06T14:17:23.003Z,7.70
2018-08-06T14:19:51.143Z,7.43
2018-08-06T14:22:19.491Z,7.30
2018-08-06T14:24:47.963Z,7.13
2018-08-06T14:27:16.399Z,7.50
2018-08-06T14:29:44.752Z,6.77
2018-08-06T14:32:13.142Z,7.40
2018-08-06T14:34:41.516Z,7.73
2018-08-06T14:37:10.051Z,7.30
2018-08-06T14:39:58.940Z,7.40
2018-08-06T14:42:27.703Z,7.40
2018-08-06T14:44:56.068Z,7.40
2018-08-06T14:47:24.516Z,7.50
2018-08-06T14:49:52.907Z,7.17
2018-08-06T14:52:21.304Z,6.63
2018-08-06T14:54:49.414Z,7.00
2018-08-06T14:57:17.763Z,7.07
2018-08-06T14:59:46.148Z,7.43
2018-08-06T15:02:14.249Z,7.33
2018-08-06T15:04:42.603Z,6.30
2018-08-06T15:07:11.016Z,6.50
2018-08-06T15:09:39.395Z,7.70
2018-08-06T15:12:07.824Z,6.20
2018-08-06T15:14:36.215Z,6.93
2018-08-06T15:17:04.662Z,7.27
2018-08-06T15:19:33.023Z,7.67
2018-08-06T15:22:01.412Z,7.70
2018-08-06T15:24:29.787Z,7.10
2018-08-06T15:26:58.151Z,7.57
2018-08-06T15:29:26.528Z,7.40
2018-08-06T15:31:54.887Z,7.00
2018-08-06T15:34:23.300Z,6.43
2018-08-06T15:36:52.310Z,7.60
2018-08-06T15:39:20.997Z,7.30
2018-08-06T15:41:49.372Z,7.53
2018-08-06T15:44:17.863Z,8.03
2018-08-06T15:46:46.276Z,6.83
2018-08-06T15:49:14.360Z,8.27
2018-08-06T15:51:42.777Z,7.97
2018-08-06T15:54:14.329Z,7.40
2018-08-06T15:56:42.728Z,7.20
2018-08-06T15:59:11.051Z,7.90
2018-08-06T16:01:39.559Z,7.90
2018-08-06T16:04:07.940Z,8.03
2018-08-06T16:06:36.304Z,9.70
2018-08-06T16:09:07.356Z,7.80
2018-08-06T16:11:35.716Z,7.57
2018-08-06T16:14:04.147Z,7.43
2018-08-06T16:16:32.472Z,6.77
2018-08-06T16:19:00.825Z,6.47
2018-08-06T16:21:29.195Z,7.63
2018-08-06T16:23:57.585Z,7.20
2018-08-06T16:26:25.635Z,7.07
2018-08-06T16:28:53.976Z,7.90
2018-08-06T16:31:22.332Z,7.50
2018-08-06T16:33:50.738Z,7.17
2018-08-06T16:36:19.129Z,7.30
2018-08-06T16:38:47.451Z,7.20
2018-08-06T16:41:15.546Z,7.20
2018-08-06T16:43:43.896Z,7.10
2018-08-06T16:46:13.190Z,7.87
2018-08-06T16:48:41.550Z,7.33
2018-08-06T16:51:09.989Z,7.80
2018-08-06T16:53:38.336Z,6.90
2018-08-06T16:56:06.462Z,7.20
2018-08-06T16:58:34.787Z,6.70
2018-08-06T17:01:03.277Z,8.03
2018-08-06T17:03:31.572Z,7.67
2018-08-06T17:05:59.975Z,7.20
2018-08-06T17:08:28.325Z,7.27
2018-08-06T17:10:56.695Z,7.70
2018-08-06T17:13:25.044Z,7.00
2018-08-06T17:15:53.428Z,7.53
2018-08-06T17:18:21.781Z,7.50
2018-08-06T17:20:50.157Z,7.90
2018-08-06T17:23:18.531Z,7.40
2018-08-06T17:25:46.859Z,7.00
2018-08-06T17:28:15.244Z,7.10
2018-08-06T17:30:43.616Z,7.30
2018-08-06T17:33:11.728Z,7.60
2018-08-06T17:35:40.059Z,6.50
2018-08-06T17:38:08.419Z,7.50
2018-08-06T17:40:36.784Z,7.40
2018-08-06T17:43:05.378Z,8.10
2018-08-06T17:45:33.744Z,8.27
2018-08-06T17:48:02.086Z,7.30
2018-08-06T17:50:30.464Z,7.40
2018-08-06T17:52:59.015Z,8.37
2018-08-06T17:55:27.372Z,7.93
2018-08-06T17:57:55.707Z,9.50
2018-08-06T18:00:24.118Z,8.07
2018-08-06T18:02:52.513Z,8.30
2018-08-06T18:05:20.964Z,8.10
2018-08-06T18:07:49.328Z,7.20
2018-08-06T18:10:18.159Z,7.30
2018-08-06T18:12:47.065Z,6.97
2018-08-06T18:15:15.579Z,7.80
2018-08-06T18:17:44.007Z,8.07
2018-08-06T18:20:14.225Z,8.20
2018-08-06T18:22:42.594Z,7.80
2018-08-06T18:25:15.500Z,8.50
2018-08-06T18:27:44.800Z,7.63
2018-08-06T18:30:16.700Z,7.40
2018-08-06T18:32:45.141Z,7.77
2018-08-06T18:35:14.936Z,8.50
2018-08-06T18:37:43.374Z,8.10
2018-08-06T18:40:12.068Z,7.70
2018-08-06T18:42:40.493Z,7.97
2018-08-06T18:45:13.566Z,8.03
2018-08-06T18:47:42.770Z,7.33
2018-08-06T18:50:12.450Z,7.40
2018-08-06T18:52:41.152Z,8.43
2018-08-06T18:55:11.176Z,7.70
2018-08-06T18:57:39.696Z,7.50
2018-08-06T19:00:14.300Z,7.90
2018-08-06T19:02:42.633Z,7.80
2018-08-06T19:05:10.952Z,8.60
2018-08-06T19:07:39.654Z,8.17
2018-08-06T19:10:08.717Z,7.50
2018-08-06T19:12:42.369Z,8.23
2018-08-06T19:15:10.967Z,8.40
2018-08-06T19:17:44.703Z,9.70
2018-08-06T19:20:13.060Z,8.40
2018-08-06T19:22:41.208Z,8.60
2018-08-06T19:25:14.823Z,8.33
2018-08-06T19:27:43.288Z,9.07
2018-08-06T19:30:12.124Z,10.50
2018-08-06T19:32:40.542Z,8.87
2018-08-06T19:35:08.987Z,9.43
2018-08-06T19:37:42.620Z,9.67
2018-08-06T19:40:11.741Z,8.57
2018-08-06T19:42:45.683Z,9.37
2018-08-06T19:45:14.383Z,8.73
2018-08-06T19:47:43.575Z,9.47
2018-08-06T19:50:17.328Z,8.40
2018-08-06T19:52:45.844Z,10.47
2018-08-06T19:55:19.501Z,10.70
2018-08-06T19:57:47.984Z,9.70
2018-08-06T20:00:16.420Z,9.67
2018-08-06T20:02:44.960Z,9.83
2018-08-06T20:05:13.359Z,9.40
2018-08-06T20:07:41.820Z,9.47
2018-08-06T20:10:11.871Z,9.93
2018-08-06T20:12:40.347Z,9.37
2018-08-06T20:15:11.480Z,10.50
2018-08-06T20:17:39.883Z,9.33
2018-08-06T20:20:08.909Z,9.27
2018-08-06T20:22:37.283Z,10.60
2018-08-06T20:25:08.400Z,10.40
2018-08-06T20:27:36.784Z,9.80
2018-08-06T20:30:05.863Z,9.60
2018-08-06T20:32:34.321Z,10.20
2018-08-06T20:35:02.704Z,9.53
2018-08-06T20:37:31.077Z,8.60
2018-08-06T20:39:59.451Z,9.37
2018-08-06T20:42:27.822Z,9.70
2018-08-06T20:44:56.203Z,10.57
2018-08-06T20:47:24.581Z,9.60
2018-08-06T20:49:52.963Z,9.13
2018-08-06T20:52:21.396Z,8.87
2018-08-06T20:54:49.463Z,8.97
2018-08-06T20:57:18.607Z,9.47
2018-08-06T20:59:46.947Z,10.40
2018-08-06T21:02:15.381Z,9.80
2018-08-06T21:04:43.669Z,8.83
2018-08-06T21:07:12.091Z,9.10
2018-08-06T21:09:40.444Z,8.93
2018-08-06T21:12:08.559Z,7.57
2018-08-06T21:14:36.958Z,8.70
2018-08-06T21:17:05.529Z,8.90
2018-08-06T21:19:33.879Z,7.97
2018-08-06T21:22:02.271Z,8.87
2018-08-06T21:24:30.647Z,8.43
2018-08-06T21:26:59.079Z,9.10
2018-08-06T21:29:27.484Z,8.00
2018-08-06T21:31:55.828Z,8.83
2018-08-06T21:34:24.218Z,8.20
2018-08-06T21:36:52.583Z,8.93
2018-08-06T21:39:20.991Z,8.80
2018-08-06T21:41:49.155Z,7.50
2018-08-06T21:44:17.530Z,8.50
2018-08-06T21:46:45.885Z,7.63
2018-08-06T21:49:14.276Z,8.53
2018-08-06T21:51:42.667Z,7.40
2018-08-06T21:54:11.052Z,8.00
2018-08-06T21:56:39.431Z,8.87
2018-08-06T21:59:07.884Z,8.03
2018-08-06T22:01:36.264Z,8.33
2018-08-06T22:04:04.707Z,7.97
2018-08-06T22:06:33.116Z,8.30
2018-08-06T22:09:01.500Z,8.83
2018-08-06T22:11:29.900Z,8.53
2018-08-06T22:13:58.376Z,9.10
2018-08-06T22:16:26.892Z,8.80
2018-08-06T22:18:55.464Z,9.23
2018-08-06T22:21:23.895Z,8.80
2018-08-06T22:23:52.387Z,9.33
2018-08-06T22:26:20.812Z,9.50
2018-08-06T22:28:49.183Z,9.40
2018-08-06T22:31:17.547Z,9.50
2018-08-06T22:33:45.991Z,8.80
2018-08-06T22:36:14.432Z,9.03
2018-08-06T22:38:42.491Z,9.23
2018-08-06T22:41:10.913Z,9.33
2018-08-06T22:43:39.373Z,8.93
2018-08-06T22:46:07.823Z,9.37
2018-08-06T22:48:36.187Z,9.47
2018-08-06T22:51:04.620Z,8.90
2018-08-06T22:53:33.052Z,8.90
2018-08-06T22:56:03.620Z,9.27
2018-08-06T22:58:32.072Z,9.97
2018-08-06T23:01:00.614Z,10.32
2018-08-06T23:03:29.114Z,9.67
2018-08-06T23:05:57.567Z,9.68
2018-08-06T23:08:25.915Z,10.18
2018-08-06T23:10:54.340Z,10.87
2018-08-06T23:13:22.699Z,10.23
2018-08-06T23:15:51.088Z,9.33
2018-08-06T23:18:19.549Z,10.00
2018-08-06T23:20:47.912Z,10.65
2018-08-06T23:23:16.291Z,11.03
2018-08-06T23:25:44.418Z,10.25
2018-08-06T23:28:12.761Z,11.15
2018-08-06T23:30:41.143Z,10.43
2018-08-06T23:33:09.619Z,11.35
2018-08-06T23:35:38.028Z,9.95
2018-08-06T23:38:06.402Z,10.60
2018-08-06T23:40:34.780Z,10.23
2018-08-06T23:43:03.136Z,11.80
2018-08-06T23:45:31.536Z,10.93
2018-08-06T23:47:59.871Z,10.58
2018-08-06T23:50:28.250Z,10.53
2018-08-06T23:52:56.408Z,11.75
2018-08-06T23:55:24.747Z,12.03
2018-08-06T23:57:53.091Z,11.90
